Time;durP1;ratioP1;P1;durP2;ratioP2;P2;SDS_P1;SDS_P2;PMS_P1;PMS_P2;Temp;Humidity;BMP_temperature;BMP_pressure;BME280_temperature;BME280_humidity;BME280_pressure;Samples;Min_cycle;Max_cycle;Signal;HPM_P1;HPM_P2
2022/03/20 00:00:07;;;;;;;26.17;19.48;;;;;;;;;;5046789;28;20082;-69
2022/03/20 00:02:37;;;;;;;25.58;19.52;;;;;;;;;;5031638;28;20041;-68
2022/03/20 00:05:04;;;;;;;22.83;18.98;;;;;;;;;;5058149;28;20395;-69
2022/03/20 00:07:33;;;;;;;25.55;19.13;;;;;;;;;;5037364;28;20041;-69
2022/03/20 00:10:01;;;;;;;21.58;18.25;;;;;;;;;;5032614;28;20032;-69
2022/03/20 00:12:27;;;;;;;22.55;19.42;;;;;;;;;;5033859;28;20037;-69
2022/03/20 00:14:52;;;;;;;24.38;19.90;;;;;;;;;;5045162;28;20086;-69
2022/03/20 00:17:20;;;;;;;21.80;19.05;;;;;;;;;;5045829;28;20104;-69
2022/03/20 00:19:47;;;;;;;25.92;20.10;;;;;;;;;;5038321;28;20039;-68
2022/03/20 00:22:13;;;;;;;23.58;18.90;;;;;;;;;;5033508;28;20575;-69
2022/03/20 00:24:42;;;;;;;22.70;19.10;;;;;;;;;;5043149;28;20227;-68
2022/03/20 00:27:12;;;;;;;;;;;;;;;;;;5040193;28;20037;-69
2022/03/20 00:29:38;;;;;;;23.35;18.38;;;;;;;;;;5049602;28;19924;-69
2022/03/20 00:32:11;;;;;;;24.27;19.27;;;;;;;;;;5036363;28;20108;-69
2022/03/20 00:34:38;;;;;;;25.10;19.85;;;;;;;;;;5039161;28;20102;-69
2022/03/20 00:37:06;;;;;;;24.23;18.48;;;;;;;;;;5040348;28;20064;-68
2022/03/20 00:39:34;;;;;;;21.08;18.70;;;;;;;;;;5035171;28;20025;-69
2022/03/20 00:42:00;;;;;;;22.27;18.60;;;;;;;;;;5048418;28;20047;-69
2022/03/20 00:44:25;;;;;;;23.20;19.27;;;;;;;;;;5031896;28;20029;-70
2022/03/20 00:46:51;;;;;;;23.65;18.55;;;;;;;;;;5031386;28;20116;-69
2022/03/20 00:49:17;;;;;;;20.35;18.08;;;;;;;;;;5052523;28;20283;-69
2022/03/20 00:51:43;;;;;;;20.88;18.60;;;;;;;;;;5035403;28;20111;-68
2022/03/20 00:54:10;;;;;;;27.55;19.90;;;;;;;;;;5045804;28;20226;-69
2022/03/20 00:56:37;;;;;;;23.55;18.52;;;;;;;;;;5048300;28;20033;-69
2022/03/20 00:59:03;;;;;;;28.15;19.38;;;;;;;;;;5037250;28;20041;-68
2022/03/20 01:01:29;;;;;;;24.42;18.85;;;;;;;;;;5035153;28;20077;-69
2022/03/20 01:03:56;;;;;;;26.05;19.95;;;;;;;;;;5041529;28;20503;-69
2022/03/20 01:06:25;;;;;;;23.02;18.52;;;;;;;;;;5041204;28;20041;-69
2022/03/20 01:08:51;;;;;;;24.95;19.30;;;;;;;;;;5043987;28;20121;-69
2022/03/20 01:11:16;;;;;;;24.60;19.38;;;;;;;;;;5034748;28;20140;-69
2022/03/20 01:13:43;;;;;;;23.77;19.35;;;;;;;;;;5038182;28;20118;-69
2022/03/20 01:16:08;;;;;;;21.13;18.58;;;;;;;;;;5036977;28;20033;-69
2022/03/20 01:18:34;;;;;;;25.48;19.08;;;;;;;;;;5049200;28;20083;-69
2022/03/20 01:21:00;;;;;;;20.50;18.40;;;;;;;;;;5028305;28;20124;-69
2022/03/20 01:23:26;;;;;;;24.23;19.00;;;;;;;;;;5039633;28;20112;-69
2022/03/20 01:25:52;;;;;;;25.23;18.40;;;;;;;;;;5037675;28;20067;-69
2022/03/20 01:28:19;;;;;;;26.80;19.40;;;;;;;;;;5043975;28;20065;-69
2022/03/20 01:30:45;;;;;;;21.13;18.42;;;;;;;;;;5037903;28;20034;-69
2022/03/20 01:33:11;;;;;;;20.80;18.10;;;;;;;;;;5033266;28;20044;-69
2022/03/20 01:35:37;;;;;;;24.77;19.20;;;;;;;;;;5040332;28;20029;-69
2022/03/20 01:38:04;;;;;;;22.95;19.15;;;;;;;;;;5046539;28;20479;-68
2022/03/20 01:40:31;;;;;;;24.88;19.15;;;;;;;;;;5034639;28;20060;-69
2022/03/20 01:42:56;;;;;;;28.13;20.05;;;;;;;;;;5029071;28;20483;-69
2022/03/20 01:45:23;;;;;;;21.63;19.30;;;;;;;;;;5048591;28;20293;-69
2022/03/20 01:47:50;;;;;;;23.27;19.50;;;;;;;;;;5039659;28;20217;-69
2022/03/20 01:50:17;;;;;;;24.83;19.33;;;;;;;;;;5039302;28;20041;-68
2022/03/20 01:52:45;;;;;;;25.95;19.58;;;;;;;;;;5035234;28;20095;-68
2022/03/20 01:55:12;;;;;;;28.70;19.50;;;;;;;;;;5046377;28;20037;-69
2022/03/20 01:57:41;;;;;;;22.88;19.52;;;;;;;;;;5041783;28;20537;-69
2022/03/20 02:00:08;;;;;;;;;;;;;;;;;;5041760;28;20067;-68
2022/03/20 02:02:38;;;;;;;21.13;18.88;;;;;;;;;;5050759;28;19912;-69
2022/03/20 02:05:07;;;;;;;24.25;20.40;;;;;;;;;;5016308;28;20472;-69
2022/03/20 02:07:37;;;;;;;22.75;19.27;;;;;;;;;;5032646;28;20097;-69
2022/03/20 02:10:07;;;;;;;25.00;20.13;;;;;;;;;;5042980;28;20035;-69
2022/03/20 02:12:34;;;;;;;23.23;19.60;;;;;;;;;;5036476;28;20037;-69
2022/03/20 02:15:01;;;;;;;26.85;20.02;;;;;;;;;;5036160;28;20033;-69
2022/03/20 02:17:30;;;;;;;25.85;19.98;;;;;;;;;;5042262;28;20107;-68
2022/03/20 02:20:03;;;;;;;26.95;20.63;;;;;;;;;;5044788;28;20033;-68
2022/03/20 02:22:32;;;;;;;25.20;19.45;;;;;;;;;;5037244;28;20045;-68
2022/03/20 02:24:58;;;;;;;25.55;19.58;;;;;;;;;;5041396;28;20043;-69
2022/03/20 02:27:27;;;;;;;22.75;19.50;;;;;;;;;;5049852;28;20033;-68
2022/03/20 02:30:12;;;;;;;23.60;19.63;;;;;;;;;;5041815;28;20041;-68
2022/03/20 02:32:40;;;;;;;23.05;18.90;;;;;;;;;;5039907;28;20489;-69
2022/03/20 02:35:11;;;;;;;26.38;19.02;;;;;;;;;;5050169;28;20032;-69
2022/03/20 02:37:39;;;;;;;25.00;19.20;;;;;;;;;;5050189;28;20224;-68
2022/03/20 02:40:06;;;;;;;25.67;20.80;;;;;;;;;;5036129;28;20484;-69
2022/03/20 02:42:32;;;;;;;28.88;19.38;;;;;;;;;;5037793;28;20483;-69
2022/03/20 02:45:03;;;;;;;24.95;19.42;;;;;;;;;;5055320;28;20033;-69
2022/03/20 02:47:32;;;;;;;23.70;18.75;;;;;;;;;;5038195;28;20033;-68
2022/03/20 02:50:19;;;;;;;25.25;18.98;;;;;;;;;;5031264;28;20064;-69
2022/03/20 02:52:51;;;;;;;24.52;18.73;;;;;;;;;;5040090;28;20523;-68
2022/03/20 02:55:20;;;;;;;18.17;16.33;;;;;;;;;;5049460;28;20115;-68
2022/03/20 02:57:47;;;;;;;19.90;16.90;;;;;;;;;;5036341;28;20048;-68
2022/03/20 03:00:17;;;;;;;22.95;18.88;;;;;;;;;;5038682;28;20098;-68
2022/03/20 03:02:44;;;;;;;25.83;18.90;;;;;;;;;;5044417;28;20049;-68
2022/03/20 03:05:16;;;;;;;26.95;20.05;;;;;;;;;;5035828;28;20045;-68
2022/03/20 03:13:16;;;;;;;23.30;17.55;;;;;;;;;;5042772;28;20069;-69
2022/03/20 03:15:42;;;;;;;25.08;20.27;;;;;;;;;;5036182;28;20075;-68
2022/03/20 03:18:08;;;;;;;24.85;19.30;;;;;;;;;;5042181;28;20025;-68
2022/03/20 03:20:34;;;;;;;25.35;20.08;;;;;;;;;;5047490;28;20102;-69
2022/03/20 03:23:00;;;;;;;24.90;19.23;;;;;;;;;;5037028;28;20051;-69
2022/03/20 03:25:26;;;;;;;24.85;19.38;;;;;;;;;;5039247;28;20431;-68
2022/03/20 03:27:53;;;;;;;24.98;20.42;;;;;;;;;;5050426;28;20361;-68
2022/03/20 03:30:18;;;;;;;22.38;19.92;;;;;;;;;;5039036;28;20065;-68
2022/03/20 03:32:44;;;;;;;24.45;18.63;;;;;;;;;;5041282;28;20488;-68
2022/03/20 03:38:03;;;;;;;27.30;19.60;;;;;;;;;;5045146;28;20082;-68
2022/03/20 03:40:30;;;;;;;21.10;18.40;;;;;;;;;;5009682;28;20081;-68
2022/03/20 03:42:57;;;;;;;24.10;20.33;;;;;;;;;;4990042;28;20100;-68
2022/03/20 03:45:24;;;;;;;22.15;18.38;;;;;;;;;;5012942;28;20564;-69
2022/03/20 03:47:51;;;;;;;24.55;19.35;;;;;;;;;;5018095;28;20399;-69
2022/03/20 03:50:17;;;;;;;20.25;16.95;;;;;;;;;;5029764;28;20587;-69
2022/03/20 03:52:42;;;;;;;24.77;20.13;;;;;;;;;;5001919;28;20123;-68
2022/03/20 03:55:08;;;;;;;23.73;19.00;;;;;;;;;;5004863;28;20049;-69
2022/03/20 03:57:34;;;;;;;22.70;18.13;;;;;;;;;;5019658;28;20079;-69
2022/03/20 03:59:59;;;;;;;26.98;20.40;;;;;;;;;;5031168;28;20077;-68
2022/03/20 04:02:25;;;;;;;22.42;19.40;;;;;;;;;;5011397;28;20045;-69
2022/03/20 04:04:51;;;;;;;23.25;18.40;;;;;;;;;;5021334;28;20088;-68
2022/03/20 04:07:18;;;;;;;21.30;18.15;;;;;;;;;;5003986;28;20041;-68
2022/03/20 04:09:45;;;;;;;24.88;19.75;;;;;;;;;;5016387;28;20077;-68
2022/03/20 04:12:15;;;;;;;19.65;17.63;;;;;;;;;;5032790;28;20049;-68
2022/03/20 04:14:41;;;;;;;28.67;20.33;;;;;;;;;;5035150;28;20095;-68
2022/03/20 04:17:07;;;;;;;21.83;19.50;;;;;;;;;;5042741;28;20032;-69
2022/03/20 04:19:33;;;;;;;21.33;18.60;;;;;;;;;;5047507;28;20384;-68
2022/03/20 04:22:02;;;;;;;27.50;20.98;;;;;;;;;;5033179;28;20039;-68
2022/03/20 04:24:28;;;;;;;23.88;18.45;;;;;;;;;;5039691;28;20041;-69
2022/03/20 04:26:55;;;;;;;25.50;21.55;;;;;;;;;;5048407;28;20036;-68
2022/03/20 04:29:21;;;;;;;26.02;19.35;;;;;;;;;;5046017;28;20028;-68
2022/03/20 04:31:50;;;;;;;18.30;16.40;;;;;;;;;;5035906;28;20039;-66
2022/03/20 04:34:16;;;;;;;27.48;18.95;;;;;;;;;;5034773;28;20120;-68
2022/03/20 04:36:43;;;;;;;22.23;19.88;;;;;;;;;;5048831;28;20040;-69
2022/03/20 04:39:08;;;;;;;29.40;22.45;;;;;;;;;;5045570;28;20033;-68
2022/03/20 04:41:34;;;;;;;20.52;18.25;;;;;;;;;;5041002;28;20044;-68
2022/03/20 04:44:00;;;;;;;17.65;16.08;;;;;;;;;;5032797;28;20056;-68
2022/03/20 04:46:26;;;;;;;20.33;18.15;;;;;;;;;;5046992;28;20419;-69
2022/03/20 04:59:50;;;;;;;21.65;19.40;;;;;;;;;;5036889;28;20033;-67
2022/03/20 05:02:16;;;;;;;22.33;18.48;;;;;;;;;;5029375;28;20033;-66
2022/03/20 05:04:42;;;;;;;19.45;17.35;;;;;;;;;;5048102;28;20400;-67
2022/03/20 05:07:08;;;;;;;23.30;20.60;;;;;;;;;;5034177;28;20089;-68
2022/03/20 05:15:10;;;;;;;22.67;19.27;;;;;;;;;;5035429;28;20084;-69
2022/03/20 05:17:36;;;;;;;26.30;20.60;;;;;;;;;;5035247;28;20057;-70
2022/03/20 05:20:05;;;;;;;24.83;20.48;;;;;;;;;;5042815;28;20032;-68
2022/03/20 05:22:35;;;;;;;26.83;20.80;;;;;;;;;;5050925;28;20082;-69
2022/03/20 05:25:06;;;;;;;29.25;21.48;;;;;;;;;;5047558;28;20123;-69
2022/03/20 05:27:31;;;;;;;21.67;19.17;;;;;;;;;;5039705;28;20049;-70
2022/03/20 05:29:57;;;;;;;34.65;23.38;;;;;;;;;;5048150;28;20509;-68
2022/03/20 05:32:23;;;;;;;26.17;20.92;;;;;;;;;;5040325;28;20040;-68
2022/03/20 05:34:49;;;;;;;28.83;19.10;;;;;;;;;;5045138;28;20079;-69
2022/03/20 05:37:14;;;;;;;23.98;17.80;;;;;;;;;;5043298;28;20438;-70
2022/03/20 05:39:40;;;;;;;27.83;21.60;;;;;;;;;;5043390;28;20408;-70
2022/03/20 05:42:06;;;;;;;26.92;21.90;;;;;;;;;;5051788;28;20037;-69
2022/03/20 05:44:33;;;;;;;29.90;22.55;;;;;;;;;;5047494;28;20029;-68
2022/03/20 05:47:00;;;;;;;31.88;24.40;;;;;;;;;;5041330;28;20380;-70
2022/03/20 05:49:26;;;;;;;24.13;18.63;;;;;;;;;;5048067;28;20077;-69
2022/03/20 05:51:54;;;;;;;28.10;19.65;;;;;;;;;;5033781;28;20064;-67
2022/03/20 05:54:20;;;;;;;23.20;20.38;;;;;;;;;;5046561;28;20084;-69
2022/03/20 05:59:30;;;;;;;24.33;20.80;;;;;;;;;;5045994;28;20116;-69
2022/03/20 06:01:56;;;;;;;20.00;17.13;;;;;;;;;;5042707;28;20613;-67
2022/03/20 06:04:22;;;;;;;22.60;18.40;;;;;;;;;;5047545;28;20124;-67
2022/03/20 06:06:48;;;;;;;25.67;21.42;;;;;;;;;;5049105;28;20128;-68
2022/03/20 06:09:15;;;;;;;26.52;21.92;;;;;;;;;;5023726;28;20037;-68
2022/03/20 06:11:41;;;;;;;35.55;22.95;;;;;;;;;;5039293;28;20091;-68
2022/03/20 06:14:08;;;;;;;25.60;21.85;;;;;;;;;;5050990;28;20037;-69
2022/03/20 06:16:37;;;;;;;26.88;20.23;;;;;;;;;;5043181;28;20033;-68
2022/03/20 06:19:08;;;;;;;25.20;19.27;;;;;;;;;;5047236;28;20025;-69
2022/03/20 06:21:34;;;;;;;27.30;20.38;;;;;;;;;;5052280;28;20043;-69
2022/03/20 06:24:00;;;;;;;19.92;17.92;;;;;;;;;;5042708;28;20083;-69
2022/03/20 06:26:25;;;;;;;22.90;19.42;;;;;;;;;;5049735;28;20441;-69
2022/03/20 06:28:53;;;;;;;26.90;21.20;;;;;;;;;;5047918;28;20072;-67
2022/03/20 06:31:19;;;;;;;28.90;22.02;;;;;;;;;;5045717;28;20041;-68
2022/03/20 06:33:46;;;;;;;23.52;20.83;;;;;;;;;;5041898;28;20083;-68
2022/03/20 06:36:13;;;;;;;32.55;23.42;;;;;;;;;;5042583;28;20033;-68
2022/03/20 06:38:39;;;;;;;24.27;20.85;;;;;;;;;;5046236;28;20476;-69
2022/03/20 06:41:06;;;;;;;34.25;24.27;;;;;;;;;;5045077;28;20032;-69
2022/03/20 06:43:37;;;;;;;22.20;19.63;;;;;;;;;;5041532;28;20092;-69
2022/03/20 06:46:04;;;;;;;24.45;20.50;;;;;;;;;;5040254;28;20139;-69
2022/03/20 06:48:29;;;;;;;23.63;20.20;;;;;;;;;;5047429;28;20497;-68
2022/03/20 06:50:55;;;;;;;27.15;20.60;;;;;;;;;;5046329;28;20029;-69
2022/03/20 06:53:21;;;;;;;26.75;17.88;;;;;;;;;;5044781;28;20525;-69
2022/03/20 06:55:48;;;;;;;24.70;20.73;;;;;;;;;;5047356;28;20032;-69
2022/03/20 06:58:14;;;;;;;26.20;21.23;;;;;;;;;;5023169;28;20147;-68
2022/03/20 07:00:40;;;;;;;26.35;20.50;;;;;;;;;;5045355;28;20044;-68
2022/03/20 07:03:08;;;;;;;26.60;20.85;;;;;;;;;;5044268;28;20201;-68
2022/03/20 07:05:35;;;;;;;28.15;22.27;;;;;;;;;;5042322;28;20075;-68
2022/03/20 07:08:03;;;;;;;29.38;22.70;;;;;;;;;;5048880;28;20040;-69
2022/03/20 07:10:29;;;;;;;25.90;20.52;;;;;;;;;;5044686;28;20167;-68
2022/03/20 07:15:41;;;;;;;21.45;19.05;;;;;;;;;;5044957;28;20095;-69
2022/03/20 07:18:08;;;;;;;33.45;23.30;;;;;;;;;;5045279;28;20029;-68
2022/03/20 07:20:34;;;;;;;25.23;21.50;;;;;;;;;;5042123;28;20037;-70
2022/03/20 07:23:01;;;;;;;28.60;21.55;;;;;;;;;;5043211;28;20071;-69
2022/03/20 07:30:56;;;;;;;33.53;24.17;;;;;;;;;;5046203;28;20094;-69
2022/03/20 07:33:24;;;;;;;27.88;23.25;;;;;;;;;;5047172;28;20053;-69
2022/03/20 07:35:53;;;;;;;29.20;23.85;;;;;;;;;;5041792;28;20063;-69
2022/03/20 07:38:19;;;;;;;30.02;24.02;;;;;;;;;;5046660;28;20790;-69
2022/03/20 07:40:44;;;;;;;30.38;23.77;;;;;;;;;;5044751;28;20098;-70
2022/03/20 07:43:10;;;;;;;30.50;24.38;;;;;;;;;;5036716;28;20041;-69
2022/03/20 07:45:35;;;;;;;31.23;24.05;;;;;;;;;;5047146;28;20074;-68
2022/03/20 07:48:02;;;;;;;28.98;23.52;;;;;;;;;;5049086;28;20048;-70
2022/03/20 07:50:28;;;;;;;28.98;23.92;;;;;;;;;;5034085;28;20033;-70
2022/03/20 07:52:59;;;;;;;29.10;24.35;;;;;;;;;;5039728;28;20049;-70
2022/03/20 07:55:27;;;;;;;32.70;24.92;;;;;;;;;;5041821;28;20458;-69
2022/03/20 07:57:53;;;;;;;32.83;24.63;;;;;;;;;;5053141;28;20031;-68
2022/03/20 08:00:19;;;;;;;30.25;25.17;;;;;;;;;;5031979;28;20072;-70
2022/03/20 08:02:45;;;;;;;30.25;25.05;;;;;;;;;;5045278;28;20040;-70
2022/03/20 08:05:11;;;;;;;33.72;25.88;;;;;;;;;;5046663;28;20040;-71
2022/03/20 08:07:38;;;;;;;28.13;24.98;;;;;;;;;;5040699;28;20044;-70
2022/03/20 08:10:06;;;;;;;29.05;24.90;;;;;;;;;;5041076;28;20047;-67
2022/03/20 08:12:31;;;;;;;30.92;24.55;;;;;;;;;;5046865;28;20068;-70
2022/03/20 08:14:58;;;;;;;30.23;24.23;;;;;;;;;;5049180;28;20500;-69
2022/03/20 08:17:24;;;;;;;29.67;24.95;;;;;;;;;;5036453;28;20135;-70
2022/03/20 08:19:49;;;;;;;31.17;26.20;;;;;;;;;;5043232;28;20439;-70
2022/03/20 08:22:15;;;;;;;26.75;23.80;;;;;;;;;;5045074;28;20502;-69
2022/03/20 08:24:42;;;;;;;31.92;26.20;;;;;;;;;;5041662;28;20037;-71
2022/03/20 08:27:07;;;;;;;34.90;25.02;;;;;;;;;;5042651;28;20073;-67
2022/03/20 08:29:33;;;;;;;35.13;25.58;;;;;;;;;;5034822;28;20128;-69
2022/03/20 08:31:59;;;;;;;30.45;24.88;;;;;;;;;;5032414;28;20098;-71
2022/03/20 08:34:25;;;;;;;29.67;25.67;;;;;;;;;;5040275;28;20431;-70
2022/03/20 08:36:50;;;;;;;27.48;23.95;;;;;;;;;;5040807;28;20029;-70
2022/03/20 08:39:16;;;;;;;30.10;24.67;;;;;;;;;;5029339;28;20044;-71
2022/03/20 08:41:43;;;;;;;28.20;24.02;;;;;;;;;;5035797;28;20047;-68
2022/03/20 08:44:09;;;;;;;30.15;25.08;;;;;;;;;;5046043;28;20037;-68
2022/03/20 08:46:36;;;;;;;28.30;24.83;;;;;;;;;;5033745;28;20029;-68
2022/03/20 08:49:09;;;;;;;25.77;22.80;;;;;;;;;;5043905;28;20095;-71
2022/03/20 08:51:36;;;;;;;26.52;23.77;;;;;;;;;;5043552;28;20025;-69
2022/03/20 08:54:02;;;;;;;27.77;24.35;;;;;;;;;;5042625;28;20081;-69
2022/03/20 08:56:28;;;;;;;27.23;24.02;;;;;;;;;;5040717;28;20061;-67
2022/03/20 08:58:54;;;;;;;28.52;24.40;;;;;;;;;;5050515;28;20048;-69
2022/03/20 09:01:20;;;;;;;27.00;23.85;;;;;;;;;;5032928;28;20416;-69
2022/03/20 09:03:49;;;;;;;29.33;23.13;;;;;;;;;;5040426;28;20033;-70
2022/03/20 09:06:20;;;;;;;28.30;24.25;;;;;;;;;;5031452;28;20033;-68
2022/03/20 09:08:46;;;;;;;29.98;26.63;;;;;;;;;;5053726;28;20411;-69
2022/03/20 09:11:12;;;;;;;30.23;25.95;;;;;;;;;;5047916;28;20087;-68
2022/03/20 09:13:38;;;;;;;29.35;25.40;;;;;;;;;;5048600;28;20072;-68
2022/03/20 09:19:01;;;;;;;30.60;24.95;;;;;;;;;;5037614;28;20472;-68
2022/03/20 09:21:28;;;;;;;32.78;26.80;;;;;;;;;;5046733;28;20091;-69
2022/03/20 09:23:54;;;;;;;31.38;24.50;;;;;;;;;;5051582;28;20122;-67
2022/03/20 09:26:19;;;;;;;27.63;24.08;;;;;;;;;;5045779;28;20492;-68
2022/03/20 09:28:46;;;;;;;31.90;26.38;;;;;;;;;;5041433;28;20037;-70
2022/03/20 09:31:13;;;;;;;27.58;24.58;;;;;;;;;;5049808;28;20029;-68
2022/03/20 09:33:42;;;;;;;33.05;26.10;;;;;;;;;;5040004;28;20037;-68
2022/03/20 09:36:10;;;;;;;28.90;23.45;;;;;;;;;;5041400;28;20190;-69
2022/03/20 09:38:36;;;;;;;26.25;23.40;;;;;;;;;;5047018;28;20032;-70
2022/03/20 09:41:07;;;;;;;32.40;25.52;;;;;;;;;;5053327;28;20400;-68
2022/03/20 09:43:44;;;;;;;27.85;24.17;;;;;;;;;;5050044;28;20033;-68
2022/03/20 09:46:09;;;;;;;30.05;25.67;;;;;;;;;;5042301;28;20029;-69
2022/03/20 09:48:35;;;;;;;26.52;23.83;;;;;;;;;;5048837;28;20541;-70
2022/03/20 09:51:04;;;;;;;27.73;24.83;;;;;;;;;;5054241;28;20563;-68
2022/03/20 09:53:30;;;;;;;33.60;26.08;;;;;;;;;;5033742;28;20036;-68
2022/03/20 09:55:57;;;;;;;28.23;24.27;;;;;;;;;;5049278;28;20047;-68
2022/03/20 09:58:28;;;;;;;30.90;25.45;;;;;;;;;;5053368;28;20047;-68
2022/03/20 10:00:55;;;;;;;27.60;23.35;;;;;;;;;;5041586;28;20052;-69
2022/03/20 10:03:23;;;;;;;27.88;24.70;;;;;;;;;;5045223;28;20512;-69
2022/03/20 10:06:16;;;;;;;27.88;23.67;;;;;;;;;;5042788;28;20036;-68
2022/03/20 10:09:04;;;;;;;29.85;24.27;;;;;;;;;;5038425;28;20045;-70
2022/03/20 10:11:30;;;;;;;28.10;24.00;;;;;;;;;;5052176;28;20091;-69
2022/03/20 10:14:14;;;;;;;28.35;23.33;;;;;;;;;;5042821;28;20033;-69
2022/03/20 10:16:48;;;;;;;25.73;23.02;;;;;;;;;;5023437;28;20124;-69
2022/03/20 10:19:22;;;;;;;27.38;24.38;;;;;;;;;;5050947;28;20039;-69
2022/03/20 10:21:52;;;;;;;26.92;24.02;;;;;;;;;;5041575;28;20091;-70
2022/03/20 10:24:22;;;;;;;28.00;24.90;;;;;;;;;;5048217;28;20078;-69
2022/03/20 10:27:00;;;;;;;30.10;25.02;;;;;;;;;;5046746;28;20036;-68
2022/03/20 10:29:27;;;;;;;30.48;24.80;;;;;;;;;;5039683;28;20304;-68
2022/03/20 10:31:56;;;;;;;27.67;24.83;;;;;;;;;;5036611;28;20508;-69
2022/03/20 10:34:26;;;;;;;30.35;23.60;;;;;;;;;;5039970;28;20306;-69
2022/03/20 10:36:52;;;;;;;29.08;24.17;;;;;;;;;;5052843;28;20492;-69
2022/03/20 10:39:20;;;;;;;27.35;23.60;;;;;;;;;;5044630;28;20107;-69
2022/03/20 10:41:47;;;;;;;27.90;25.00;;;;;;;;;;5046453;28;20051;-69
2022/03/20 10:44:16;;;;;;;26.20;23.50;;;;;;;;;;5047110;28;20480;-69
2022/03/20 10:46:43;;;;;;;;;;;;;;;;;;5044615;28;20059;-68
2022/03/20 10:49:11;;;;;;;26.98;23.85;;;;;;;;;;5041153;28;19971;-69
2022/03/20 10:51:41;;;;;;;28.38;25.38;;;;;;;;;;5045017;28;20236;-68
2022/03/20 10:54:21;;;;;;;29.98;24.77;;;;;;;;;;5046071;28;20111;-70
2022/03/20 10:56:58;;;;;;;33.75;28.05;;;;;;;;;;5042331;28;20337;-69
2022/03/20 10:59:26;;;;;;;27.38;24.25;;;;;;;;;;5043723;28;20467;-69
2022/03/20 11:01:51;;;;;;;26.08;23.27;;;;;;;;;;5035908;28;20029;-69
2022/03/20 11:04:19;;;;;;;28.65;23.33;;;;;;;;;;5050462;28;20039;-70
2022/03/20 11:06:49;;;;;;;27.02;24.13;;;;;;;;;;5038641;28;20040;-69
2022/03/20 11:09:16;;;;;;;28.30;25.27;;;;;;;;;;5042409;28;20140;-69
2022/03/20 11:11:50;;;;;;;28.27;24.65;;;;;;;;;;5032817;28;20373;-69
2022/03/20 11:14:19;;;;;;;30.27;27.02;;;;;;;;;;5039815;28;20488;-68
2022/03/20 11:17:00;;;;;;;27.13;24.27;;;;;;;;;;5036307;28;20029;-68
2022/03/20 11:19:29;;;;;;;28.35;23.95;;;;;;;;;;5032718;28;20048;-69
2022/03/20 11:21:59;;;;;;;26.27;23.55;;;;;;;;;;5041618;28;20081;-69
2022/03/20 11:24:26;;;;;;;27.27;24.25;;;;;;;;;;5041319;28;20075;-69
2022/03/20 11:26:57;;;;;;;29.67;24.23;;;;;;;;;;5042649;28;20437;-69
2022/03/20 11:29:25;;;;;;;27.10;23.50;;;;;;;;;;5032793;28;20136;-69
2022/03/20 11:31:51;;;;;;;27.10;21.23;;;;;;;;;;5039407;28;20300;-69
2022/03/20 11:34:17;;;;;;;21.98;19.75;;;;;;;;;;5044051;28;20807;-68
2022/03/20 11:37:06;;;;;;;24.75;18.95;;;;;;;;;;5042917;28;20373;-69
2022/03/20 11:39:33;;;;;;;22.50;20.20;;;;;;;;;;5033873;28;20045;-69
2022/03/20 11:42:22;;;;;;;23.13;20.83;;;;;;;;;;5035311;28;20112;-69
2022/03/20 11:45:10;;;;;;;;;;;;;;;;;;5048882;28;20032;-68
2022/03/20 11:47:38;;;;;;;22.88;19.15;;;;;;;;;;5042142;28;19920;-68
2022/03/20 11:50:25;;;;;;;22.85;19.90;;;;;;;;;;5047897;28;20447;-69
2022/03/20 11:52:58;;;;;;;26.35;20.45;;;;;;;;;;5044808;28;20391;-69
2022/03/20 11:55:29;;;;;;;24.52;20.00;;;;;;;;;;5048694;28;20434;-69
2022/03/20 11:57:57;;;;;;;23.63;19.98;;;;;;;;;;5039304;28;20032;-69
2022/03/20 12:00:25;;;;;;;21.45;19.05;;;;;;;;;;5036165;28;20040;-69
2022/03/20 12:03:09;;;;;;;23.33;20.13;;;;;;;;;;5047362;28;20508;-69
2022/03/20 12:05:41;;;;;;;21.10;18.90;;;;;;;;;;5038453;28;20119;-69
2022/03/20 12:08:34;;;;;;;23.83;20.85;;;;;;;;;;5038698;28;20041;-69
2022/03/20 12:11:06;;;;;;;25.17;21.58;;;;;;;;;;5052596;28;20032;-69
2022/03/20 12:13:59;;;;;;;23.63;21.17;;;;;;;;;;5034429;28;20046;-69
2022/03/20 12:16:43;;;;;;;22.88;20.40;;;;;;;;;;5029723;28;20036;-69
2022/03/20 12:19:13;;;;;;;27.15;22.02;;;;;;;;;;5048916;28;20092;-68
2022/03/20 12:22:06;;;;;;;27.20;24.25;;;;;;;;;;5036473;28;20090;-69
2022/03/20 12:24:35;;;;;;;24.17;21.80;;;;;;;;;;5044971;28;20064;-68
2022/03/20 12:27:19;;;;;;;23.55;21.17;;;;;;;;;;5044937;28;20075;-69
2022/03/20 12:30:13;;;;;;;25.77;23.15;;;;;;;;;;5041064;28;20087;-69
2022/03/20 12:32:58;;;;;;;24.48;21.67;;;;;;;;;;5037022;28;20041;-68
2022/03/20 12:35:42;;;;;;;28.30;21.50;;;;;;;;;;5045746;28;20198;-69
2022/03/20 12:38:34;;;;;;;25.08;22.23;;;;;;;;;;5031292;28;20503;-69
2022/03/20 12:41:11;;;;;;;23.67;21.15;;;;;;;;;;5040374;28;20032;-69
2022/03/20 12:43:37;;;;;;;23.15;20.60;;;;;;;;;;5049528;28;20037;-69
2022/03/20 12:46:03;;;;;;;24.20;21.65;;;;;;;;;;5037717;28;20031;-69
2022/03/20 12:48:32;;;;;;;23.65;21.05;;;;;;;;;;5045888;28;20124;-70
2022/03/20 12:51:09;;;;;;;24.15;21.35;;;;;;;;;;5041516;28;20041;-69
2022/03/20 12:53:45;;;;;;;23.95;21.48;;;;;;;;;;5041160;28;20041;-69
2022/03/20 12:56:32;;;;;;;23.33;20.83;;;;;;;;;;5046446;28;20048;-69
2022/03/20 12:58:57;;;;;;;24.48;20.55;;;;;;;;;;5047689;28;20527;-70
2022/03/20 13:01:22;;;;;;;23.25;20.25;;;;;;;;;;5034639;28;20322;-69
2022/03/20 13:03:48;;;;;;;23.20;20.75;;;;;;;;;;5034023;28;20364;-69
2022/03/20 13:06:15;;;;;;;23.77;20.40;;;;;;;;;;5036242;28;20035;-69
2022/03/20 13:08:44;;;;;;;22.27;20.10;;;;;;;;;;5038834;28;20311;-69
2022/03/20 13:14:12;;;;;;;22.38;18.80;;;;;;;;;;5042719;28;20500;-69
2022/03/20 13:16:53;;;;;;;22.08;19.83;;;;;;;;;;5035722;28;20581;-69
2022/03/20 13:19:35;;;;;;;23.50;20.90;;;;;;;;;;5041386;28;20029;-70
2022/03/20 13:22:06;;;;;;;22.40;19.83;;;;;;;;;;5042667;28;20047;-70
2022/03/20 13:24:45;;;;;;;20.10;18.15;;;;;;;;;;5043578;28;20040;-70
2022/03/20 13:27:11;;;;;;;21.85;19.40;;;;;;;;;;5041361;28;20032;-70
2022/03/20 13:29:41;;;;;;;23.35;19.55;;;;;;;;;;5043008;28;20060;-69
2022/03/20 13:32:11;;;;;;;21.65;19.35;;;;;;;;;;5034302;28;20041;-70
2022/03/20 13:34:45;;;;;;;21.50;19.45;;;;;;;;;;5037407;28;20037;-69
2022/03/20 13:37:13;;;;;;;23.58;19.15;;;;;;;;;;5048526;28;20044;-70
2022/03/20 13:39:46;;;;;;;21.42;18.98;;;;;;;;;;5046588;28;20036;-69
2022/03/20 13:42:20;;;;;;;21.42;18.92;;;;;;;;;;5040781;28;20038;-70
2022/03/20 13:44:47;;;;;;;21.73;19.52;;;;;;;;;;5043640;28;20036;-69
2022/03/20 13:47:14;;;;;;;23.45;18.52;;;;;;;;;;5046861;28;20471;-70
2022/03/20 13:49:41;;;;;;;21.58;19.27;;;;;;;;;;5039175;28;20037;-69
2022/03/20 13:52:09;;;;;;;21.67;17.63;;;;;;;;;;5040688;28;20159;-69
2022/03/20 13:54:39;;;;;;;19.95;17.90;;;;;;;;;;5053364;28;20028;-69
2022/03/20 13:57:08;;;;;;;21.15;19.10;;;;;;;;;;5050693;28;20036;-68
2022/03/20 13:59:51;;;;;;;23.27;20.98;;;;;;;;;;5034780;28;20021;-69
2022/03/20 14:02:17;;;;;;;21.33;19.13;;;;;;;;;;5043778;28;20238;-68
2022/03/20 14:04:43;;;;;;;22.30;19.25;;;;;;;;;;5047212;28;20048;-68
2022/03/20 14:07:24;;;;;;;21.20;19.10;;;;;;;;;;5045356;28;20044;-68
2022/03/20 14:09:51;;;;;;;23.40;19.35;;;;;;;;;;5046618;28;20826;-68
2022/03/20 14:12:31;;;;;;;21.05;17.77;;;;;;;;;;5042618;28;20075;-68
2022/03/20 14:15:06;;;;;;;20.60;18.50;;;;;;;;;;5046708;28;20646;-68
2022/03/20 14:17:52;;;;;;;25.45;21.08;;;;;;;;;;5046677;28;20043;-67
2022/03/20 14:20:21;;;;;;;21.67;19.15;;;;;;;;;;5041772;28;20416;-70
2022/03/20 14:22:53;;;;;;;24.63;20.45;;;;;;;;;;5050309;28;20033;-69
2022/03/20 14:25:44;;;;;;;24.00;21.38;;;;;;;;;;5047030;28;20048;-68
2022/03/20 14:28:12;;;;;;;23.65;21.25;;;;;;;;;;5040622;28;20036;-68
2022/03/20 14:41:53;;;;;;;32.92;22.65;;;;;;;;;;5053493;28;20132;-69
2022/03/20 14:44:23;;;;;;;;;;;;;;;;;;5045092;28;20490;-69
2022/03/20 14:46:50;;;;;;;;;;;;;;;;;;5042331;28;20399;-69
2022/03/20 14:49:16;;;;;;;;;;;;;;;;;;5046317;28;20012;-69
2022/03/20 14:51:42;;;;;;;;;;;;;;;;;;5051833;28;20316;-69
2022/03/20 14:54:08;;;;;;;;;;;;;;;;;;5041115;28;20376;-68
2022/03/20 14:56:34;;;;;;;;;;;;;;;;;;5052567;28;20311;-67
2022/03/20 14:59:00;;;;;;;;;;;;;;;;;;5034856;28;20178;-68
2022/03/20 15:01:26;;;;;;;;;;;;;;;;;;5042980;28;19920;-68
2022/03/20 15:03:51;;;;;;;;;;;;;;;;;;5049680;28;19916;-69
2022/03/20 15:06:17;;;;;;;;;;;;;;;;;;5037469;28;20019;-68
2022/03/20 15:11:27;;;;;;;;;;;;;;;;;;5042147;28;19938;-68
2022/03/20 15:13:53;;;;;;;;;;;;;;;;;;5047679;28;20306;-68
2022/03/20 15:16:19;;;;;;;;;;;;;;;;;;5036294;28;19917;-68
2022/03/20 15:18:45;;;;;;;;;;;;;;;;;;5037793;28;19924;-68
2022/03/20 15:21:10;;;;;;;;;;;;;;;;;;5047176;28;20126;-69
2022/03/20 15:23:36;;;;;;;;;;;;;;;;;;5043986;28;20019;-69
2022/03/20 15:26:02;;;;;;;;;;;;;;;;;;5044786;28;19963;-68
2022/03/20 15:28:28;;;;;;;;;;;;;;;;;;5042412;28;19927;-68
2022/03/20 15:30:55;;;;;;;;;;;;;;;;;;5046513;28;19920;-68